createdAt,value
2019-04-07T00:01:49.298Z,108.42
2019-04-07T00:04:18.844Z,86.47
2019-04-07T00:06:48.492Z,84.25
2019-04-07T00:09:18.840Z,108.32
2019-04-07T00:11:48.682Z,117.65
2019-04-07T00:14:18.542Z,115.47
2019-04-07T00:16:48.325Z,112.05
2019-04-07T00:19:18.234Z,99.05
2019-04-07T00:21:48.176Z,97.60
2019-04-07T00:24:18.069Z,111.70
2019-04-07T00:26:47.719Z,104.55
2019-04-07T00:29:17.448Z,114.67
2019-04-07T00:31:47.124Z,89.77
2019-04-07T00:34:17.456Z,108.00
2019-04-07T00:36:47.523Z,115.08
2019-04-07T00:39:17.153Z,125.37
2019-04-07T00:41:47.486Z,97.40
2019-04-07T00:44:17.412Z,112.22
2019-04-07T00:46:47.658Z,123.65
2019-04-07T00:49:17.483Z,111.20
2019-04-07T00:51:47.773Z,100.33
2019-04-07T00:54:17.499Z,89.10
2019-04-07T00:56:47.091Z,87.50
2019-04-07T00:59:17.496Z,93.90
2019-04-07T01:01:47.833Z,96.25
2019-04-07T01:04:17.548Z,100.27
2019-04-07T01:06:47.348Z,106.27
2019-04-07T01:09:17.292Z,115.30
2019-04-07T01:11:47.442Z,108.83
2019-04-07T01:14:17.378Z,118.45
2019-04-07T01:16:47.194Z,124.90
2019-04-07T01:19:16.950Z,110.90
2019-04-07T01:21:46.883Z,116.42
2019-04-07T01:24:16.581Z,115.25
2019-04-07T01:26:46.204Z,122.40
2019-04-07T01:29:15.879Z,115.00
2019-04-07T01:31:45.745Z,98.72
2019-04-07T01:34:15.861Z,104.55
2019-04-07T01:36:45.625Z,122.67
2019-04-07T01:39:15.285Z,140.85
2019-04-07T01:41:47.183Z,102.72
2019-04-07T01:44:18.934Z,101.42
2019-04-07T01:46:49.183Z,113.00
2019-04-07T01:49:20.656Z,112.83
2019-04-07T01:51:51.999Z,91.35
2019-04-07T01:54:21.818Z,107.65
2019-04-07T01:56:53.793Z,111.17
2019-04-07T01:59:25.386Z,123.30
2019-04-07T02:01:57.116Z,140.40
2019-04-07T02:04:28.438Z,122.30
2019-04-07T02:06:59.933Z,104.00
2019-04-07T02:09:31.595Z,116.90
2019-04-07T02:12:03.423Z,121.45
2019-04-07T02:14:35.528Z,96.73
2019-04-07T02:17:06.971Z,137.03
2019-04-07T02:19:38.225Z,94.75
2019-04-07T02:22:10.124Z,100.15
2019-04-07T02:24:42.218Z,96.70
2019-04-07T02:27:14.055Z,108.83
2019-04-07T02:29:45.296Z,109.15
2019-04-07T02:32:17.431Z,84.75
2019-04-07T02:34:49.056Z,95.62
2019-04-07T02:37:20.685Z,113.07
2019-04-07T02:39:52.103Z,109.07
2019-04-07T02:42:23.347Z,98.07
2019-04-07T02:44:54.596Z,111.83
2019-04-07T02:47:25.832Z,97.55
2019-04-07T02:49:57.095Z,97.57
2019-04-07T02:52:30.300Z,98.80
2019-04-07T02:55:01.240Z,109.32
2019-04-07T02:57:32.531Z,109.30
2019-04-07T03:00:04.552Z,84.85
2019-04-07T03:02:35.876Z,89.07
2019-04-07T03:05:06.575Z,95.90
2019-04-07T03:07:39.003Z,86.90
2019-04-07T03:10:10.880Z,94.30
2019-04-07T03:12:42.172Z,93.52
2019-04-07T03:15:13.708Z,105.27
2019-04-07T03:17:45.832Z,101.87
2019-04-07T03:20:17.264Z,98.20
2019-04-07T03:22:48.986Z,119.50
2019-04-07T03:25:20.640Z,116.10
2019-04-07T03:27:52.765Z,125.80
2019-04-07T03:30:25.872Z,83.57
2019-04-07T03:32:57.923Z,91.32
2019-04-07T03:35:32.913Z,104.45
2019-04-07T03:38:03.358Z,89.13
2019-04-07T03:40:35.477Z,88.10
2019-04-07T03:43:07.168Z,97.07
2019-04-07T03:45:38.392Z,122.03
2019-04-07T03:48:10.272Z,87.70
2019-04-07T03:50:41.593Z,123.15
2019-04-07T03:53:12.880Z,85.22
2019-04-07T03:55:44.098Z,84.52
2019-04-07T03:58:16.250Z,88.40
2019-04-07T04:00:50.670Z,97.50
2019-04-07T04:03:22.782Z,114.10
2019-04-07T04:05:55.015Z,137.90
2019-04-07T04:08:26.639Z,126.60
2019-04-07T04:10:58.110Z,109.17
2019-04-07T04:13:30.574Z,113.35
2019-04-07T04:16:02.993Z,111.50
2019-04-07T04:18:32.928Z,117.72
2019-04-07T04:21:03.430Z,101.47
2019-04-07T04:23:33.682Z,107.75
2019-04-07T04:26:04.301Z,121.80
2019-04-07T04:28:34.747Z,120.40
2019-04-07T04:31:04.758Z,115.12
2019-04-07T04:33:34.821Z,115.42
2019-04-07T04:36:05.616Z,119.77
2019-04-07T04:38:36.451Z,100.77
2019-04-07T04:41:06.868Z,107.12
2019-04-07T04:43:36.589Z,107.20
2019-04-07T04:46:09.552Z,104.05
2019-04-07T04:48:38.650Z,107.97
2019-04-07T04:51:08.680Z,118.45
2019-04-07T04:53:38.455Z,118.85
2019-04-07T04:56:08.156Z,119.50
2019-04-07T04:58:38.069Z,120.50
2019-04-07T05:01:07.986Z,115.77
2019-04-07T05:03:38.349Z,132.52
2019-04-07T05:06:08.026Z,110.20
2019-04-07T05:08:37.896Z,125.27
2019-04-07T05:11:07.930Z,114.72
2019-04-07T05:13:37.675Z,125.30
2019-04-07T05:16:07.282Z,123.80
2019-04-07T05:18:37.138Z,138.68
2019-04-07T05:21:06.908Z,102.70
2019-04-07T05:23:36.584Z,122.20
2019-04-07T05:26:06.907Z,94.13
2019-04-07T05:28:37.308Z,109.60
2019-04-07T05:31:07.806Z,119.25
2019-04-07T05:33:37.662Z,121.77
2019-04-07T05:36:07.238Z,114.17
2019-04-07T05:38:37.751Z,118.82
2019-04-07T05:41:07.590Z,125.70
2019-04-07T05:43:38.115Z,109.17
2019-04-07T05:46:08.260Z,96.37
2019-04-07T05:48:39.179Z,95.93
2019-04-07T05:51:09.707Z,101.65
2019-04-07T05:53:39.955Z,107.55
2019-04-07T05:56:09.719Z,114.90
2019-04-07T05:58:41.088Z,109.40
2019-04-07T06:01:10.736Z,84.50
2019-04-07T06:03:42.750Z,101.40
2019-04-07T06:06:11.626Z,113.37
2019-04-07T06:08:41.367Z,95.77
2019-04-07T06:11:11.443Z,103.67
2019-04-07T06:13:43.793Z,86.40
2019-04-07T06:16:12.959Z,89.05
2019-04-07T06:18:43.311Z,98.90
2019-04-07T06:21:15.310Z,110.28
2019-04-07T06:23:44.497Z,78.50
2019-04-07T06:26:15.079Z,99.90
2019-04-07T06:28:48.478Z,84.62
2019-04-07T06:31:16.201Z,81.78
2019-04-07T06:33:45.953Z,72.40
2019-04-07T06:36:19.440Z,86.25
2019-04-07T06:38:51.338Z,90.80
2019-04-07T06:41:18.413Z,78.30
2019-04-07T06:43:48.303Z,78.17
2019-04-07T06:46:17.734Z,74.87
2019-04-07T06:48:49.022Z,66.28
2019-04-07T06:51:20.569Z,83.50
2019-04-07T06:53:52.441Z,88.52
2019-04-07T06:56:24.307Z,85.60
2019-04-07T06:58:55.839Z,98.67
2019-04-07T07:01:27.457Z,86.25
2019-04-07T07:03:58.728Z,62.77
2019-04-07T07:06:30.020Z,132.60
2019-04-07T07:09:02.031Z,73.70
2019-04-07T07:11:35.384Z,94.83
2019-04-07T07:14:07.753Z,53.42
2019-04-07T07:16:42.473Z,70.70
2019-04-07T07:19:12.075Z,55.25
2019-04-07T07:21:43.501Z,61.70
2019-04-07T07:24:15.418Z,65.17
2019-04-07T07:26:44.982Z,51.18
2019-04-07T07:29:16.388Z,54.48
2019-04-07T07:31:46.075Z,58.28
2019-04-07T07:34:16.353Z,50.98
2019-04-07T07:36:47.076Z,63.85
2019-04-07T07:39:17.867Z,61.60
2019-04-07T07:41:50.349Z,65.95
2019-04-07T07:44:18.891Z,62.27
2019-04-07T07:46:50.425Z,72.90
2019-04-07T07:49:20.388Z,60.25
2019-04-07T07:51:50.597Z,80.30
2019-04-07T07:54:20.703Z,53.08
2019-04-07T07:56:51.640Z,60.80
2019-04-07T07:59:22.549Z,53.28
2019-04-07T08:01:52.565Z,72.47
2019-04-07T08:04:24.944Z,55.08
2019-04-07T08:06:54.466Z,44.08
2019-04-07T08:09:25.992Z,57.23
2019-04-07T08:11:55.960Z,49.05
2019-04-07T08:14:26.039Z,58.42
2019-04-07T08:16:55.770Z,41.95
2019-04-07T08:19:29.412Z,46.83
2019-04-07T08:21:57.302Z,49.75
2019-04-07T08:24:27.263Z,52.48
2019-04-07T08:26:58.890Z,48.10
2019-04-07T08:29:29.039Z,55.83
2019-04-07T08:31:58.936Z,44.00
2019-04-07T08:34:30.545Z,52.38
2019-04-07T08:37:00.887Z,65.13
2019-04-07T08:39:33.584Z,58.28
2019-04-07T08:42:03.463Z,51.13
2019-04-07T08:44:33.352Z,56.85
2019-04-07T08:47:02.977Z,48.55
2019-04-07T08:49:34.522Z,56.92
2019-04-07T08:52:08.725Z,39.70
2019-04-07T08:54:35.797Z,48.45
2019-04-07T08:57:05.766Z,42.13
2019-04-07T08:59:39.585Z,65.15
2019-04-07T09:02:07.587Z,85.63
2019-04-07T09:04:37.436Z,50.90
2019-04-07T09:07:07.894Z,59.18
2019-04-07T09:09:44.841Z,45.20
2019-04-07T09:12:09.277Z,43.28
2019-04-07T09:14:40.744Z,54.05
2019-04-07T09:17:10.559Z,54.20
2019-04-07T09:19:41.763Z,56.28
2019-04-07T09:22:13.121Z,49.73
2019-04-07T09:24:45.006Z,64.03
2019-04-07T09:27:19.487Z,46.63
2019-04-07T09:29:49.345Z,76.37
2019-04-07T09:32:20.984Z,61.68
2019-04-07T09:34:53.966Z,57.65
2019-04-07T09:37:26.124Z,63.85
2019-04-07T09:40:01.062Z,52.20
2019-04-07T09:42:30.560Z,71.73
2019-04-07T09:45:02.109Z,47.20
2019-04-07T09:47:33.604Z,59.80
2019-04-07T09:50:04.985Z,82.60
2019-04-07T09:52:36.992Z,65.72
2019-04-07T09:55:09.699Z,65.72
2019-04-07T09:57:41.943Z,54.23
2019-04-07T10:00:11.704Z,67.78
2019-04-07T10:02:43.698Z,54.97
2019-04-07T10:05:15.496Z,87.42
2019-04-07T10:07:47.661Z,73.45
2019-04-07T10:10:19.254Z,63.95
2019-04-07T10:12:51.221Z,56.75
2019-04-07T10:15:22.684Z,52.60
2019-04-07T10:17:53.921Z,60.40
2019-04-07T10:20:25.921Z,53.63
2019-04-07T10:22:57.503Z,58.43
2019-04-07T10:25:29.325Z,49.60
2019-04-07T10:28:01.499Z,53.85
2019-04-07T10:30:33.036Z,62.95
2019-04-07T10:33:03.098Z,56.37
2019-04-07T10:35:34.894Z,74.85
2019-04-07T10:38:07.452Z,54.65
2019-04-07T10:40:39.029Z,94.37
2019-04-07T10:43:10.655Z,74.87
2019-04-07T10:45:41.985Z,52.33
2019-04-07T10:48:13.517Z,59.53
2019-04-07T10:50:44.849Z,49.05
2019-04-07T10:53:16.998Z,57.98
2019-04-07T10:55:48.593Z,50.83
2019-04-07T10:58:20.771Z,58.95
2019-04-07T11:00:52.649Z,51.60
2019-04-07T11:03:24.774Z,44.98
2019-04-07T11:05:57.064Z,58.85
2019-04-07T11:08:28.777Z,49.38
2019-04-07T11:11:00.145Z,43.50
2019-04-07T11:13:32.548Z,61.88
2019-04-07T11:16:03.902Z,49.55
2019-04-07T11:18:36.405Z,70.87
2019-04-07T11:21:07.767Z,72.42
2019-04-07T11:23:39.251Z,57.85
2019-04-07T11:26:11.231Z,52.47
2019-04-07T11:28:43.448Z,34.65
2019-04-07T11:31:15.654Z,40.73
2019-04-07T11:33:47.077Z,48.98
2019-04-07T11:36:21.319Z,38.88
2019-04-07T11:38:51.688Z,50.00
2019-04-07T11:41:26.193Z,38.88
2019-04-07T11:43:54.556Z,43.35
2019-04-07T11:46:26.292Z,32.80
2019-04-07T11:48:57.836Z,51.42
2019-04-07T11:51:29.117Z,43.63
2019-04-07T11:54:01.550Z,40.80
2019-04-07T11:56:32.887Z,39.60
2019-04-07T11:59:06.729Z,44.63
2019-04-07T12:01:37.046Z,40.67
2019-04-07T12:04:08.266Z,38.48
2019-04-07T12:06:39.735Z,34.40
2019-04-07T12:09:11.929Z,54.67
2019-04-07T12:11:43.315Z,41.80
2019-04-07T12:14:16.263Z,45.03
2019-04-07T12:16:47.505Z,35.83
2019-04-07T12:19:17.395Z,43.30
2019-04-07T12:21:49.308Z,62.55
2019-04-07T12:24:24.636Z,62.43
2019-04-07T12:26:53.856Z,61.60
2019-04-07T12:29:25.500Z,42.23
2019-04-07T12:31:57.680Z,55.93
2019-04-07T12:34:27.547Z,46.65
2019-04-07T12:37:02.438Z,41.45
2019-04-07T12:39:34.143Z,43.23
2019-04-07T12:42:07.149Z,37.42
2019-04-07T12:44:38.255Z,69.35
2019-04-07T12:47:10.219Z,41.45
2019-04-07T12:49:44.382Z,40.05
2019-04-07T12:52:15.188Z,52.65
2019-04-07T12:54:47.064Z,49.75
2019-04-07T12:57:18.840Z,38.98
2019-04-07T12:59:51.420Z,60.98
2019-04-07T13:02:23.966Z,47.07
2019-04-07T13:04:56.049Z,51.40
2019-04-07T13:07:27.280Z,58.02
2019-04-07T13:10:02.677Z,40.75
2019-04-07T13:12:32.210Z,39.90
2019-04-07T13:15:03.614Z,42.88
2019-04-07T13:17:37.800Z,52.08
2019-04-07T13:20:10.624Z,41.28
2019-04-07T13:22:42.166Z,48.90
2019-04-07T13:25:14.278Z,42.23
2019-04-07T13:27:45.657Z,44.00
2019-04-07T13:30:17.942Z,41.83
2019-04-07T13:32:52.444Z,52.27
2019-04-07T13:35:22.544Z,46.57
2019-04-07T13:37:54.410Z,43.30
2019-04-07T13:40:26.253Z,39.97
2019-04-07T13:42:58.906Z,56.23
2019-04-07T13:45:29.011Z,39.42
2019-04-07T13:48:01.359Z,46.40
2019-04-07T13:50:34.415Z,34.30
2019-04-07T13:53:06.624Z,43.45
2019-04-07T13:55:41.773Z,35.52
2019-04-07T13:58:11.984Z,42.25
2019-04-07T14:00:46.313Z,39.83
2019-04-07T14:03:16.697Z,37.67
2019-04-07T14:05:48.068Z,30.55
2019-04-07T14:08:19.922Z,38.05
2019-04-07T14:10:51.395Z,37.73
2019-04-07T14:13:21.036Z,31.90
2019-04-07T14:15:50.937Z,44.60
2019-04-07T14:18:22.248Z,38.83
2019-04-07T14:20:54.038Z,40.78
2019-04-07T14:23:25.471Z,43.98
2019-04-07T14:25:56.956Z,45.43
2019-04-07T14:28:28.709Z,48.00
2019-04-07T14:30:58.795Z,33.20
2019-04-07T14:33:30.811Z,35.33
2019-04-07T14:36:03.077Z,38.10
2019-04-07T14:38:32.625Z,31.68
2019-04-07T14:41:04.043Z,31.45
2019-04-07T14:43:35.370Z,44.48
2019-04-07T14:46:06.803Z,38.63
2019-04-07T14:48:38.051Z,46.50
2019-04-07T14:51:10.091Z,42.63
2019-04-07T14:53:42.065Z,34.50
2019-04-07T14:56:13.492Z,34.85
2019-04-07T14:58:48.357Z,28.27
2019-04-07T15:01:18.065Z,39.57
2019-04-07T15:03:48.012Z,32.63
2019-04-07T15:06:18.504Z,37.95
2019-04-07T15:08:49.863Z,47.13
2019-04-07T15:11:21.186Z,38.67
2019-04-07T15:13:50.794Z,38.17
2019-04-07T15:16:20.715Z,33.40
2019-04-07T15:18:51.202Z,34.27
2019-04-07T15:21:21.042Z,34.38
2019-04-07T15:23:50.781Z,37.83
2019-04-07T15:26:21.465Z,33.85
2019-04-07T15:28:52.424Z,28.73
2019-04-07T15:31:22.106Z,31.48
2019-04-07T15:33:51.686Z,31.37
2019-04-07T15:36:22.106Z,29.37
2019-04-07T15:38:55.402Z,28.70
2019-04-07T15:41:23.383Z,30.77
2019-04-07T15:43:54.976Z,35.03
2019-04-07T15:46:24.317Z,41.27
2019-04-07T15:48:55.734Z,31.10
2019-04-07T15:51:26.240Z,34.40
2019-04-07T15:53:56.549Z,29.90
2019-04-07T15:56:27.088Z,34.53
2019-04-07T15:59:00.699Z,33.70
2019-04-07T16:01:28.255Z,35.20
2019-04-07T16:03:57.911Z,28.98
2019-04-07T16:06:28.018Z,40.80
2019-04-07T16:09:00.777Z,29.43
2019-04-07T16:11:30.464Z,26.95
2019-04-07T16:14:01.647Z,40.33
2019-04-07T16:16:31.840Z,32.73
2019-04-07T16:19:01.683Z,38.78
2019-04-07T16:21:31.491Z,27.70
2019-04-07T16:24:01.150Z,27.93
2019-04-07T16:26:32.170Z,35.25
2019-04-07T16:29:02.886Z,36.67
2019-04-07T16:31:33.317Z,46.77
2019-04-07T16:34:05.757Z,45.30
2019-04-07T16:36:58.243Z,27.13
2019-04-07T16:39:29.138Z,44.77
2019-04-07T16:41:58.888Z,38.97
2019-04-07T16:44:29.695Z,42.63
2019-04-07T16:47:02.920Z,31.82
2019-04-07T16:49:48.701Z,29.02
2019-04-07T16:52:23.335Z,33.10
2019-04-07T16:54:54.800Z,37.93
2019-04-07T17:00:15.273Z,34.33
2019-04-07T17:06:35.844Z,43.42
2019-04-07T17:09:08.639Z,40.50
2019-04-07T17:11:40.683Z,43.43
2019-04-07T17:14:10.568Z,32.55
2019-04-07T17:16:44.342Z,30.50
2019-04-07T17:19:15.077Z,41.23
2019-04-07T17:22:05.016Z,26.48
2019-04-07T17:25:02.119Z,63.87
2019-04-07T17:27:31.487Z,42.63
2019-04-07T17:36:56.300Z,43.45
2019-04-07T17:39:40.090Z,52.55
2019-04-07T17:42:11.967Z,55.30
2019-04-07T17:44:47.734Z,61.68
2019-04-07T17:47:18.376Z,35.73
2019-04-07T17:50:21.540Z,39.07
2019-04-07T17:59:30.237Z,41.80
2019-04-07T18:02:20.302Z,37.17
2019-04-07T18:05:06.453Z,63.02
2019-04-07T18:07:38.251Z,37.75
2019-04-07T18:10:10.029Z,53.65
2019-04-07T18:12:40.151Z,49.48
2019-04-07T18:15:11.748Z,46.85
2019-04-07T18:17:46.015Z,48.87
2019-04-07T18:20:28.277Z,47.65
2019-04-07T18:23:00.210Z,38.98
2019-04-07T18:25:34.017Z,40.98
2019-04-07T18:32:12.174Z,41.87
2019-04-07T18:39:11.160Z,47.30
2019-04-07T18:45:36.408Z,48.38
2019-04-07T18:51:16.105Z,72.72
2019-04-07T18:53:53.176Z,58.08
2019-04-07T18:56:34.696Z,35.70
2019-04-07T18:59:07.512Z,39.55
2019-04-07T19:01:39.507Z,53.25
2019-04-07T19:04:12.209Z,55.63
2019-04-07T19:06:50.065Z,42.03
2019-04-07T19:09:27.667Z,39.75
2019-04-07T19:12:06.748Z,46.95
2019-04-07T19:14:44.551Z,40.40
2019-04-07T19:17:10.800Z,53.60
2019-04-07T19:19:42.361Z,39.70
2019-04-07T19:22:32.828Z,56.90
2019-04-07T19:25:15.453Z,53.75
2019-04-07T19:27:46.602Z,40.03
2019-04-07T19:30:39.400Z,88.47
2019-04-07T19:33:11.029Z,46.93
2019-04-07T19:35:43.422Z,51.92
2019-04-07T19:42:16.453Z,56.60
2019-04-07T19:44:53.094Z,56.28
2019-04-07T19:47:31.164Z,48.60
2019-04-07T19:50:00.895Z,54.73
2019-04-07T19:52:39.789Z,54.33
2019-04-07T19:55:12.165Z,42.35
2019-04-07T19:57:51.321Z,80.07
2019-04-07T20:00:44.701Z,60.98
2019-04-07T20:03:11.449Z,47.75
2019-04-07T20:05:48.818Z,50.52
2019-04-07T20:11:29.624Z,66.95
2019-04-07T20:13:58.670Z,65.45
2019-04-07T20:16:30.605Z,63.98
2019-04-07T20:19:03.291Z,48.90
2019-04-07T20:21:39.421Z,60.90
2019-04-07T20:26:54.534Z,39.23
2019-04-07T20:29:27.951Z,58.63
2019-04-07T20:32:03.367Z,43.98
2019-04-07T20:37:26.223Z,59.53
2019-04-07T20:39:58.844Z,55.75
2019-04-07T20:42:31.260Z,62.75
2019-04-07T20:45:07.935Z,65.75
2019-04-07T20:51:36.587Z,50.10
2019-04-07T20:54:06.518Z,61.00
2019-04-07T20:56:45.858Z,81.15
2019-04-07T20:59:25.272Z,77.70
2019-04-07T21:02:03.445Z,58.08
2019-04-07T21:04:27.559Z,52.65
2019-04-07T21:07:01.774Z,61.50
2019-04-07T21:09:34.584Z,61.30
2019-04-07T21:12:04.985Z,61.80
2019-04-07T21:14:36.368Z,69.95
2019-04-07T21:17:09.485Z,50.83
2019-04-07T21:19:41.143Z,43.83
2019-04-07T21:22:12.433Z,57.62
2019-04-07T21:24:41.914Z,66.30
2019-04-07T21:27:14.242Z,51.33
2019-04-07T21:32:55.119Z,70.40
2019-04-07T21:35:26.520Z,63.80
2019-04-07T21:38:00.474Z,70.75
2019-04-07T21:40:32.125Z,71.17
2019-04-07T21:43:18.810Z,67.47
2019-04-07T21:45:52.776Z,54.73
2019-04-07T21:48:23.254Z,59.33
2019-04-07T21:51:02.342Z,62.40
2019-04-07T21:57:21.564Z,63.00
2019-04-07T21:59:56.279Z,57.20
2019-04-07T22:02:27.790Z,53.30
2019-04-07T22:04:59.030Z,56.58
2019-04-07T22:07:33.494Z,62.53
2019-04-07T22:10:07.421Z,71.05
2019-04-07T22:12:38.021Z,82.78
2019-04-07T22:15:14.041Z,72.17
2019-04-07T22:17:43.950Z,51.10
2019-04-07T22:20:17.686Z,63.73
2019-04-07T22:22:47.334Z,74.15
2019-04-07T22:25:22.794Z,73.72
2019-04-07T22:27:54.489Z,52.08
2019-04-07T22:30:28.309Z,55.20
2019-04-07T22:32:58.168Z,51.35
2019-04-07T22:35:36.453Z,63.42
2019-04-07T22:41:56.136Z,90.42
2019-04-07T22:44:30.067Z,75.08
2019-04-07T22:47:13.115Z,68.40
2019-04-07T22:50:02.540Z,68.83
2019-04-07T22:52:51.138Z,81.40
2019-04-07T22:58:36.148Z,159.10
2019-04-07T23:01:09.265Z,111.52
2019-04-07T23:14:07.332Z,70.57
2019-04-07T23:16:42.535Z,88.75
2019-04-07T23:19:21.381Z,77.23
2019-04-07T23:26:03.299Z,68.23
2019-04-07T23:32:23.916Z,91.57
2019-04-07T23:34:53.799Z,72.95
2019-04-07T23:37:24.235Z,60.28
2019-04-07T23:39:54.386Z,61.05
2019-04-07T23:42:24.382Z,56.58
2019-04-07T23:44:55.207Z,79.22
2019-04-07T23:47:25.234Z,68.65
2019-04-07T23:50:31.505Z,53.85
2019-04-07T23:53:04.189Z,61.50
2019-04-07T23:55:38.172Z,63.83
2019-04-07T23:58:11.088Z,60.43
